Elk Grove Village, IL

4:59 PM CST en Enero 27, 2015 (GMT -0600)
Chicago-Midway | Change Station
CLOSE
Current Station
Aeropuerto
Location: Chicago Midway,
Altura: 623 ft
Estaciones meteorológicas cercanas

Alt 623 ft 41.78 °N, 87.76 °W | Updated 6 minutes ago

Parcialmente nublado
Parcialmente nublado
29 ° F
Sensación térmica 21 ° F
N
8
Viento Variable Viento desde NNE

Hoy
Alta -- | Baja -- ° F
--% Posibilidad de precipitaciones
Ayer
Alta -- | Baja -- ° F
Precip. -- pul
7:09 AM 5:00 PM
Cuarto creciente, 58% visible
Presión 30.27 pul
Visibilidad 10.0 Millas
Nubes Baja 3000 ft
Baja 25000 ft
Vientos helados 21 ° F
Punto de rocío 17 ° F
Humedad 61%
Precipitaciones 0.00 pul
Espesor de la nieve No disponible.
UV 0 de una escala de 12
Polen .10 de una escala de 12
Calidad del aire No disponible.
Flu Activity No disponible.
METAR KMDW 272253Z 02007KT 10SM FEW030 FEW250 M02/M08 A3023 RMK AO2 SLP250 T10171083

More Conditions Fewer Conditions

Presión 30.27 pul
Visibilidad 10.0 Millas
Nubes Baja 3000 ft
Baja 25000 ft
Vientos helados 21 ° F
Punto de rocío 17 ° F
Humedad 61%
Precipitaciones 0.00 pul
Espesor de la nieve No disponible.
UV 0 de una escala de 12
Polen .10 de una escala de 12
Calidad del aire No disponible.
Flu Activity No disponible.
METAR KMDW 272253Z 02007KT 10SM FEW030 FEW250 M02/M08 A3023 RMK AO2 SLP250 T10171083

More Conditions Fewer Conditions

10-Day Weather Forecast

Almanac

Astronomía

Jan. 27, 2015 Salida Puesta
Hora real
Crepúsculo civil
Crepúsculo náutico
Crepúsculo astronómico
Luna
Horas de luz
Horas de luz
Tomorrow will be .
, % of the Moon is Illuminated

Extremos de hoy

Máximos del estado Bajos del estado

Community

WunderPhotos

Upload Photos

1,790,960 ¡fotos cargadas!

WunderBlogs® & News

Nearby

Calidad del aire

  Calidad del aire Índice AQ Contaminante
Not available.

Grosos de nieve

Estación Profundido Altura

Actividad de terremotos

Ciudad Distance Mag. Tiempo y dato
Magnitud mínima muestra es 2,5.

Temperaturas de aguas costeras

Lugar Temperatura

Estaciones meteorológicas cercanas